createdAt,value
2022-10-29T00:47:42.291Z,69.60
2022-10-29T00:50:15.026Z,70.00
2022-10-29T00:52:48.843Z,70.10
2022-10-29T00:55:18.559Z,69.90
2022-10-29T00:57:52.072Z,69.90
2022-10-29T01:47:15.945Z,69.70
2022-10-29T01:49:50.501Z,69.90
2022-10-29T01:52:23.102Z,69.60
2022-10-29T01:54:51.254Z,69.60
2022-10-29T01:57:32.306Z,70.00
2022-10-29T02:46:59.059Z,69.30
2022-10-29T02:49:27.460Z,69.80
2022-10-29T02:51:55.596Z,69.60
2022-10-29T02:54:23.687Z,69.60
2022-10-29T02:56:51.830Z,69.60
2022-10-29T02:59:20.031Z,69.60
2022-10-29T03:45:42.149Z,69.60
2022-10-29T03:48:10.329Z,69.80
2022-10-29T03:50:38.513Z,69.80
2022-10-29T03:53:06.784Z,69.80
2022-10-29T03:55:35.147Z,69.80
2022-10-29T03:58:03.314Z,69.90
2022-10-29T04:32:39.206Z,69.30
2022-10-29T04:35:09.056Z,69.80
2022-10-29T04:37:37.314Z,69.30
2022-10-29T04:40:06.903Z,69.40
2022-10-29T04:42:37.483Z,69.20
2022-10-29T04:45:07.442Z,69.40
2022-10-29T04:47:36.742Z,69.40
2022-10-29T04:50:07.273Z,69.40
2022-10-29T04:52:35.468Z,69.50
2022-10-29T04:55:03.926Z,69.70
2022-10-29T04:57:32.388Z,69.50
2022-10-29T05:00:00.592Z,69.50
2022-10-29T05:02:29.089Z,69.70
2022-10-29T05:04:57.236Z,69.70
2022-10-29T05:07:27.109Z,69.40
2022-10-29T05:09:55.237Z,69.60
2022-10-29T05:12:23.382Z,69.80
2022-10-29T05:14:51.943Z,69.70
2022-10-29T05:17:20.689Z,69.50
2022-10-29T05:19:48.780Z,69.90
2022-10-29T05:22:16.872Z,69.70
2022-10-29T05:24:46.477Z,69.60
2022-10-29T05:27:14.645Z,69.70
2022-10-29T05:29:42.715Z,69.40
2022-10-29T05:32:10.869Z,69.50
2022-10-29T05:34:42.013Z,69.40
2022-10-29T05:37:12.479Z,69.70
2022-10-29T05:39:40.579Z,69.40
2022-10-29T05:42:10.031Z,69.50
2022-10-29T05:44:38.259Z,69.60
2022-10-29T05:47:08.056Z,69.60
2022-10-29T05:49:36.276Z,69.60
2022-10-29T05:52:05.086Z,69.60
2022-10-29T05:54:33.235Z,69.70
2022-10-29T05:57:01.340Z,69.60
2022-10-29T05:59:33.583Z,69.50
2022-10-29T06:02:02.266Z,70.30
2022-10-29T06:04:30.456Z,69.70
2022-10-29T06:06:58.662Z,69.70
2022-10-29T06:09:26.797Z,70.40
2022-10-29T06:11:56.205Z,69.70
2022-10-29T06:14:24.597Z,69.70
2022-10-29T06:16:54.102Z,69.60
2022-10-29T06:19:22.636Z,69.60
2022-10-29T06:21:54.099Z,69.50
2022-10-29T06:24:24.615Z,69.50
2022-10-29T06:26:54.724Z,69.60
2022-10-29T06:29:23.112Z,69.30
2022-10-29T06:31:51.572Z,69.40
2022-10-29T06:34:21.257Z,69.30
2022-10-29T06:36:49.376Z,69.30
2022-10-29T06:39:17.486Z,69.40
2022-10-29T06:41:45.663Z,69.30
2022-10-29T06:44:20.232Z,69.20
2022-10-29T06:46:48.568Z,69.40
2022-10-29T06:49:16.905Z,69.20
2022-10-29T06:51:46.471Z,69.10
2022-10-29T06:54:15.170Z,69.30
2022-10-29T06:56:43.315Z,69.20
2022-10-29T06:59:11.444Z,69.40
2022-10-29T07:01:39.591Z,69.50
2022-10-29T07:04:07.738Z,69.40
2022-10-29T07:06:36.109Z,69.40
2022-10-29T07:09:05.997Z,69.40
2022-10-29T07:11:34.391Z,69.50
2022-10-29T07:14:02.677Z,69.50
2022-10-29T07:16:30.844Z,69.60
2022-10-29T07:18:59.001Z,69.50
2022-10-29T07:21:27.119Z,69.40
2022-10-29T07:23:55.315Z,68.80
2022-10-29T07:26:24.865Z,68.20
2022-10-29T07:28:56.881Z,66.70
2022-10-29T07:31:25.121Z,65.90
2022-10-29T07:33:53.464Z,64.50
2022-10-29T07:36:21.814Z,64.40
2022-10-29T07:38:50.103Z,64.40
2022-10-29T07:41:18.268Z,64.10
2022-10-29T07:43:47.939Z,64.20
2022-10-29T07:46:16.048Z,65.00
2022-10-29T07:48:44.302Z,64.50
2022-10-29T07:51:12.433Z,64.50
2022-10-29T07:53:40.569Z,64.60
2022-10-29T07:56:09.357Z,64.80
2022-10-29T07:58:38.157Z,64.40
2022-10-29T08:01:08.247Z,64.90
2022-10-29T08:03:36.433Z,64.50
2022-10-29T08:06:04.753Z,64.70
2022-10-29T08:08:34.810Z,64.60
2022-10-29T08:11:04.934Z,64.80
2022-10-29T08:13:33.185Z,65.10
2022-10-29T08:16:02.745Z,64.90
2022-10-29T08:18:32.276Z,64.90
2022-10-29T08:21:03.749Z,64.30
2022-10-29T08:23:31.938Z,65.10
2022-10-29T08:26:00.613Z,65.30
2022-10-29T08:28:31.685Z,65.50
2022-10-29T08:31:01.507Z,65.20
2022-10-29T08:33:31.118Z,64.50
2022-10-29T08:35:59.294Z,65.20
2022-10-29T08:38:27.414Z,64.80
2022-10-29T08:41:19.580Z,64.20
2022-10-29T08:44:25.820Z,64.30
2022-10-29T08:47:00.336Z,64.10
2022-10-29T08:49:39.104Z,64.90
2022-10-29T08:52:13.959Z,65.50
2022-10-29T08:54:44.467Z,65.70
2022-10-29T08:57:18.809Z,65.40
2022-10-29T09:00:03.414Z,65.30
2022-10-29T09:02:31.691Z,65.30
2022-10-29T09:05:02.685Z,65.20
2022-10-29T09:07:48.424Z,65.20
2022-10-29T09:10:29.999Z,64.80
2022-10-29T09:13:37.800Z,65.50
2022-10-29T09:16:35.443Z,65.00
2022-10-29T09:19:36.191Z,65.70
2022-10-29T09:22:18.825Z,64.80
2022-10-29T09:24:58.764Z,64.50
2022-10-29T09:27:43.517Z,64.10
2022-10-29T09:30:16.833Z,64.10
2022-10-29T09:32:56.585Z,64.20
2022-10-29T09:35:40.443Z,64.30
2022-10-29T09:38:18.566Z,64.50
2022-10-29T09:40:46.929Z,64.30
2022-10-29T09:43:28.422Z,64.20
2022-10-29T09:46:02.566Z,63.90
2022-10-29T09:48:36.325Z,63.80
2022-10-29T09:51:20.306Z,64.00
2022-10-29T09:53:51.774Z,63.90
2022-10-29T09:56:19.955Z,63.70
2022-10-29T09:58:54.974Z,63.80
2022-10-29T10:01:23.320Z,64.20
2022-10-29T10:03:59.351Z,66.90
2022-10-29T10:06:27.677Z,67.10
2022-10-29T10:09:03.843Z,68.60
2022-10-29T10:11:39.227Z,66.10
2022-10-29T10:14:22.505Z,64.90
2022-10-29T10:16:59.330Z,65.50
2022-10-29T10:19:30.675Z,65.60
2022-10-29T10:22:01.079Z,65.40
2022-10-29T10:24:33.852Z,65.30
2022-10-29T10:27:02.774Z,65.10
2022-10-29T10:29:31.589Z,65.50
2022-10-29T10:32:16.592Z,65.50
2022-10-29T10:34:44.762Z,65.70
2022-10-29T10:37:19.789Z,66.20
2022-10-29T10:39:53.498Z,66.30
2022-10-29T10:42:25.285Z,67.50
2022-10-29T10:44:57.837Z,67.80
2022-10-29T10:47:29.903Z,67.00
2022-10-29T10:50:13.171Z,67.00
2022-10-29T10:52:41.988Z,69.00
2022-10-29T10:55:24.461Z,68.90
2022-10-29T10:58:04.599Z,68.00
2022-10-29T11:00:39.086Z,68.10
2022-10-29T11:03:19.459Z,68.00
2022-10-29T11:06:03.346Z,68.00
2022-10-29T11:08:37.855Z,68.10
2022-10-29T11:11:12.397Z,68.10
2022-10-29T11:13:42.312Z,68.20
2022-10-29T11:16:18.596Z,68.30
2022-10-29T11:18:55.321Z,68.50
2022-10-29T11:21:30.020Z,65.50
2022-10-29T11:24:06.323Z,65.70
2022-10-29T11:26:39.012Z,68.30
2022-10-29T11:29:21.035Z,75.50
2022-10-29T11:31:59.936Z,70.20
2022-10-29T11:34:42.103Z,68.70
2022-10-29T11:37:21.066Z,67.70
2022-10-29T11:39:57.333Z,64.90
2022-10-29T11:42:27.054Z,65.40
2022-10-29T11:44:55.605Z,65.60
2022-10-29T11:47:43.596Z,66.40
2022-10-29T11:50:24.597Z,66.70
2022-10-29T11:53:03.397Z,65.40
2022-10-29T11:55:42.043Z,65.70
2022-10-29T11:58:19.632Z,66.30
2022-10-29T12:00:58.556Z,65.50
2022-10-29T12:03:51.622Z,65.10
2022-10-29T12:06:27.462Z,65.90
2022-10-29T12:09:11.120Z,65.00
2022-10-29T12:11:46.662Z,65.10
2022-10-29T12:14:29.830Z,64.50
2022-10-29T12:17:07.003Z,64.80
2022-10-29T12:19:49.207Z,64.30
2022-10-29T12:22:31.745Z,64.10
2022-10-29T12:25:30.148Z,64.20
2022-10-29T12:28:19.147Z,63.30
2022-10-29T12:31:10.478Z,64.00
2022-10-29T12:33:47.570Z,63.90
2022-10-29T12:36:23.618Z,65.60
2022-10-29T12:38:56.408Z,64.50
2022-10-29T12:41:27.863Z,64.40
2022-10-29T12:44:08.541Z,63.50
2022-10-29T12:46:44.545Z,63.30
2022-10-29T12:49:19.597Z,63.80
2022-10-29T12:51:54.879Z,64.10
2022-10-29T12:54:37.495Z,64.20
2022-10-29T12:57:19.299Z,64.30
2022-10-29T12:59:47.814Z,64.70
2022-10-29T13:02:46.850Z,64.70
2022-10-29T13:05:36.485Z,64.80
2022-10-29T13:08:33.859Z,64.80
2022-10-29T13:11:02.954Z,64.80
2022-10-29T13:13:53.671Z,65.40
2022-10-29T13:16:28.609Z,65.30
2022-10-29T13:19:26.926Z,65.40
2022-10-29T13:22:52.234Z,65.60
2022-10-29T13:25:49.140Z,65.60
2022-10-29T13:28:50.679Z,65.90
2022-10-29T13:31:51.130Z,65.90
2022-10-29T13:34:59.234Z,66.40
2022-10-29T13:37:51.272Z,66.40
2022-10-29T13:41:14.127Z,66.50
2022-10-29T13:43:52.168Z,66.20
2022-10-29T13:46:46.815Z,67.10
2022-10-29T13:49:19.923Z,67.30
2022-10-29T13:51:58.165Z,67.10
2022-10-29T13:54:41.097Z,67.40
2022-10-29T13:57:20.299Z,67.20
2022-10-29T13:59:56.109Z,67.40
2022-10-29T14:02:43.399Z,68.10
2022-10-29T14:05:20.311Z,68.10
2022-10-29T14:07:56.529Z,68.10
2022-10-29T14:13:11.722Z,67.60
2022-10-29T14:15:40.326Z,68.30
2022-10-29T14:18:25.365Z,69.70
2022-10-29T14:20:56.951Z,69.90
2022-10-29T14:23:27.364Z,72.00
2022-10-29T14:25:57.622Z,70.40
2022-10-29T14:28:27.903Z,69.70
2022-10-29T14:31:07.269Z,69.50
2022-10-29T14:33:37.410Z,69.40
2022-10-29T14:36:15.006Z,69.90
2022-10-29T14:38:51.178Z,69.60
2022-10-29T14:41:21.264Z,69.20
2022-10-29T14:44:01.775Z,69.10
2022-10-29T14:46:34.004Z,69.00
2022-10-29T14:49:14.999Z,69.60
2022-10-29T14:51:51.686Z,69.50
2022-10-29T14:54:26.037Z,71.00
2022-10-29T14:57:00.382Z,70.50
2022-10-29T14:59:32.403Z,71.40
2022-10-29T15:02:24.558Z,71.50
2022-10-29T15:05:02.976Z,70.70
2022-10-29T15:07:36.856Z,71.60
2022-10-29T15:10:23.388Z,70.60
2022-10-29T15:12:53.389Z,70.20
2022-10-29T15:15:29.602Z,70.70
2022-10-29T15:18:04.473Z,70.20
2022-10-29T15:20:38.035Z,69.50
2022-10-29T15:23:07.072Z,68.90
2022-10-29T15:25:39.828Z,68.70
2022-10-29T15:28:11.459Z,68.60
2022-10-29T15:30:41.170Z,68.70
2022-10-29T15:33:17.925Z,68.80
2022-10-29T15:35:52.079Z,69.00
2022-10-29T15:39:19.737Z,68.80
2022-10-29T15:41:51.804Z,69.20
2022-10-29T15:44:39.122Z,69.20
2022-10-29T15:47:29.221Z,69.10
2022-10-29T15:49:57.834Z,69.20
2022-10-29T15:52:32.676Z,69.40
2022-10-29T15:55:01.886Z,69.20
2022-10-29T15:57:31.848Z,69.50
2022-10-29T16:00:06.742Z,69.40
2022-10-29T16:02:35.241Z,69.00
2022-10-29T16:05:03.971Z,68.60
2022-10-29T16:07:32.782Z,69.00
2022-10-29T16:10:01.733Z,69.10
2022-10-29T16:12:32.278Z,69.30
2022-10-29T16:15:00.661Z,70.50
2022-10-29T16:17:30.219Z,71.30
2022-10-29T16:19:59.124Z,71.60
2022-10-29T16:22:30.744Z,70.00
2022-10-29T16:24:58.960Z,70.00
2022-10-29T16:27:28.270Z,68.60
2022-10-29T16:29:57.904Z,67.20
2022-10-29T16:32:26.583Z,66.90
2022-10-29T16:34:54.911Z,65.70
2022-10-29T16:37:23.054Z,64.60
2022-10-29T16:39:51.565Z,66.10
2022-10-29T16:42:31.040Z,66.60
2022-10-29T16:45:00.536Z,65.80
2022-10-29T16:47:29.062Z,66.50
2022-10-29T16:49:57.220Z,66.30
2022-10-29T16:52:29.546Z,66.20
2022-10-29T16:54:58.583Z,66.60
2022-10-29T16:57:26.929Z,66.70
2022-10-29T16:59:55.226Z,67.10
2022-10-29T17:02:25.034Z,66.70
2022-10-29T17:04:53.171Z,65.50
2022-10-29T17:07:21.356Z,65.20
2022-10-29T17:09:49.680Z,65.70
2022-10-29T17:12:18.182Z,66.50
2022-10-29T17:14:46.477Z,67.90
2022-10-29T17:17:15.168Z,68.50
2022-10-29T17:19:44.767Z,73.00
2022-10-29T17:22:16.725Z,69.70
2022-10-29T17:24:47.428Z,74.90
2022-10-29T17:27:17.361Z,74.30
2022-10-29T17:29:50.012Z,75.30
2022-10-29T17:32:18.490Z,75.30
2022-10-29T17:34:48.201Z,73.70
2022-10-29T17:37:16.486Z,71.40
2022-10-29T17:39:44.710Z,71.60
2022-10-29T17:42:12.816Z,70.90
2022-10-29T17:44:41.286Z,69.40
2022-10-29T17:47:11.268Z,70.50
2022-10-29T17:49:39.816Z,70.20
2022-10-29T17:52:09.547Z,72.30
2022-10-29T17:54:38.373Z,76.70
2022-10-29T17:57:07.280Z,73.60
2022-10-29T17:59:35.508Z,80.60
2022-10-29T18:02:03.800Z,85.60
2022-10-29T18:04:31.978Z,91.30
2022-10-29T18:07:00.160Z,86.50
2022-10-29T18:09:29.717Z,83.30
2022-10-29T18:11:57.791Z,84.80
2022-10-29T18:14:26.175Z,81.10
2022-10-29T18:16:54.755Z,91.30
2022-10-29T18:19:23.743Z,82.60
2022-10-29T18:21:52.335Z,79.00
2022-10-29T18:24:22.274Z,77.80
2022-10-29T18:26:52.126Z,76.80
2022-10-29T18:29:20.506Z,76.00
2022-10-29T18:31:48.587Z,75.40
2022-10-29T18:34:17.045Z,73.30
2022-10-29T18:36:47.483Z,72.90
2022-10-29T18:39:16.016Z,72.00
2022-10-29T18:41:44.488Z,72.10
2022-10-29T18:44:14.150Z,71.00
2022-10-29T18:46:42.621Z,71.40
2022-10-29T18:49:13.047Z,72.10
2022-10-29T18:51:41.817Z,71.90
2022-10-29T18:54:12.921Z,72.50
2022-10-29T18:56:41.808Z,72.90
2022-10-29T18:59:13.866Z,73.10
2022-10-29T19:01:42.407Z,73.30
2022-10-29T19:04:15.771Z,73.20
2022-10-29T19:06:44.777Z,73.40
2022-10-29T19:09:13.434Z,73.40
2022-10-29T19:11:42.008Z,73.90
2022-10-29T19:14:15.252Z,74.00
2022-10-29T19:16:43.413Z,74.10
2022-10-29T19:19:17.038Z,74.20
2022-10-29T19:21:46.974Z,74.00
2022-10-29T19:24:16.522Z,74.20
2022-10-29T19:26:45.304Z,74.20
2022-10-29T19:29:15.508Z,74.30
2022-10-29T19:31:46.266Z,74.10
2022-10-29T19:34:14.847Z,74.00
2022-10-29T19:36:43.663Z,74.00
2022-10-29T19:39:12.344Z,73.90
2022-10-29T19:41:40.841Z,74.00
2022-10-29T19:44:09.091Z,74.40
2022-10-29T19:46:38.784Z,73.90
2022-10-29T19:49:07.079Z,73.50
2022-10-29T19:51:35.189Z,72.60
2022-10-29T19:54:05.238Z,72.10
2022-10-29T19:56:33.725Z,71.80
2022-10-29T19:59:01.901Z,71.70
2022-10-29T20:01:30.411Z,71.60
2022-10-29T20:04:01.095Z,71.60
2022-10-29T20:06:29.778Z,71.20
2022-10-29T20:08:57.932Z,71.00
2022-10-29T20:11:26.164Z,71.10
2022-10-29T20:13:54.315Z,71.00
2022-10-29T20:16:23.657Z,72.20
2022-10-29T20:18:52.240Z,73.70
2022-10-29T20:21:21.827Z,72.80
2022-10-29T20:23:50.211Z,72.40
2022-10-29T20:26:18.335Z,71.80
2022-10-29T20:28:46.496Z,72.60
2022-10-29T20:31:30.182Z,72.20
2022-10-29T20:34:00.800Z,71.40
2022-10-29T20:36:33.323Z,71.10
2022-10-29T20:39:02.072Z,71.70
2022-10-29T20:41:30.940Z,72.20
2022-10-29T20:44:01.212Z,72.40
2022-10-29T20:46:31.065Z,72.50
2022-10-29T20:49:00.199Z,72.70
2022-10-29T20:51:30.616Z,72.70
2022-10-29T20:53:59.037Z,72.80
2022-10-29T20:56:29.455Z,73.10
2022-10-29T20:58:58.288Z,73.00
2022-10-29T21:01:26.982Z,73.30
2022-10-29T21:03:55.708Z,73.10
2022-10-29T21:06:24.498Z,73.10
2022-10-29T21:08:54.273Z,73.20
2022-10-29T21:11:23.899Z,73.30
2022-10-29T21:13:52.319Z,73.30
2022-10-29T21:16:23.402Z,73.00
2022-10-29T21:18:54.069Z,73.50
2022-10-29T21:21:22.825Z,73.40
2022-10-29T21:23:52.759Z,73.50
2022-10-29T21:26:22.921Z,73.80
2022-10-29T21:28:53.318Z,73.80
2022-10-29T21:31:23.813Z,73.80
2022-10-29T21:33:52.894Z,73.80
2022-10-29T21:36:21.776Z,73.90
2022-10-29T21:38:50.332Z,74.00
2022-10-29T21:41:19.911Z,74.00
2022-10-29T21:43:48.095Z,73.90
2022-10-29T21:46:16.409Z,72.90
2022-10-29T21:48:44.596Z,73.00
2022-10-29T21:51:14.719Z,73.10
2022-10-29T21:53:43.468Z,71.60
2022-10-29T21:56:15.411Z,70.50
2022-10-29T21:58:45.623Z,70.20
2022-10-29T22:01:16.546Z,70.20
2022-10-29T22:03:47.268Z,70.10
2022-10-29T22:06:18.614Z,70.10
2022-10-29T22:08:48.655Z,70.40
2022-10-29T22:11:17.655Z,70.50
2022-10-29T22:13:47.366Z,69.90
2022-10-29T22:16:16.139Z,70.50
2022-10-29T22:18:44.617Z,70.40
2022-10-29T22:21:15.201Z,70.30
2022-10-29T22:23:44.946Z,70.20
2022-10-29T22:26:14.992Z,70.00
2022-10-29T22:28:43.859Z,69.90
2022-10-29T22:31:14.990Z,70.00
2022-10-29T22:33:44.505Z,70.40
2022-10-29T22:36:16.278Z,70.60
2022-10-29T22:38:45.247Z,70.60
2022-10-29T22:41:15.975Z,70.80
2022-10-29T22:43:44.477Z,70.80
2022-10-29T22:46:17.092Z,70.90
2022-10-29T22:48:46.039Z,70.80
2022-10-29T22:51:17.401Z,71.10
2022-10-29T22:53:46.662Z,71.10
2022-10-29T22:56:16.321Z,71.00
2022-10-29T22:58:45.442Z,71.10
2022-10-29T23:13:59.455Z,71.50
2022-10-29T23:16:30.016Z,71.40
2022-10-29T23:19:00.940Z,71.30
2022-10-29T23:21:30.292Z,71.40
2022-10-29T23:23:59.413Z,71.50
2022-10-29T23:26:29.323Z,71.40
2022-10-29T23:28:58.907Z,71.50
2022-10-29T23:31:29.509Z,72.40
2022-10-29T23:33:58.810Z,71.50
2022-10-29T23:36:28.617Z,71.70
2022-10-29T23:38:57.589Z,71.70
2022-10-29T23:41:26.688Z,71.90
2022-10-29T23:43:55.107Z,71.80
2022-10-29T23:46:25.126Z,72.10
2022-10-29T23:48:53.235Z,72.00
2022-10-29T23:51:21.465Z,72.00
2022-10-29T23:53:53.098Z,72.00
2022-10-29T23:56:24.620Z,72.00
2022-10-29T23:58:52.805Z,72.00
